Kezdőlap
METAR-TAF:

METAR-TAF

Repülőterek :

Akulivik, Québec, Kanada

földrajzi szélesség: 60-49N, földrajzi hosszúság: 078-09W, magasság: 20 m

Jelenlegi meteorológiai megfigyelések

A jelentés 1 órával és 23 perccel ezelõtt készült, 16:00 UTC
Nyugat-északnyugati szél 13 kt
Hőmérséklet 13°C
Páratartalom 82%
Légköri nyomás 1024 hPa
Látótávolság: 24.1 km
Szakadozott felhőzet 1300 lábon

METAR: CYKO 131600Z 30013KT 15SM BKN013 13/10 A3024 RMK SC7 LAST/OBS NXT/OBS 14/1200Z SLP245

Idő: 13:23 (17:23 UTC)


TAF: hiányzik

Meteorológiai megfigyelések és előrejelzések több, mint 4000 repülőtéren (METAR és TAF jelentéseket).

A térképen piros és sárga pontok jelzik az elérhető meteorológiai állomásokat.

Mozgassa az egeret a pont fölött, hogy megjelenjen az állomás neve.

Azután kattintson az időjárási megfigyelések és előrejelzések megtekintéséhez.

A térkép megváltoztatása: kattintson a fekete keresztel jelölt zöld gombra ráközelítéshez, a vonallal jelölt zöld gombra távolításhoz, vagy a zöld nyilakra a szomszédos térképek eléréséhez.


METAR-TAF: